Time;durP1;ratioP1;P1;durP2;ratioP2;P2;SDS_P1;SDS_P2;PMS_P1;PMS_P2;Temp;Humidity;BMP_temperature;BMP_pressure;BME280_temperature;BME280_humidity;BME280_pressure;Samples;Min_cycle;Max_cycle;Signal;HPM_P1;HPM_P2
2022/06/28 00:01:22;;;;;;;;;;;21.30;99.90;;;;;;5016414;28;19917;-55
2022/06/28 00:04:07;;;;;;;;;;;21.20;99.90;;;;;;5020770;28;20331;-54
2022/06/28 00:06:51;;;;;;;;;;;21.20;99.90;;;;;;5035513;28;19963;-51
2022/06/28 00:09:35;;;;;;;;;;;21.20;99.90;;;;;;5036119;28;19937;-53
2022/06/28 00:12:20;;;;;;;;;;;21.30;99.90;;;;;;5036108;28;19919;-55
2022/06/28 00:18:09;;;;;;;;;;;21.20;99.90;;;;;;5034814;28;19911;-58
2022/06/28 00:20:53;;;;;;;;;;;21.10;99.90;;;;;;5036294;28;19915;-56
2022/06/28 00:23:38;;;;;;;;;;;21.00;99.90;;;;;;5021721;28;20371;-50
2022/06/28 00:26:22;;;;;;;;;;;21.00;99.90;;;;;;5014980;28;20404;-53
2022/06/28 00:29:06;;;;;;;;;;;21.00;99.90;;;;;;5015471;28;20335;-52
2022/06/28 00:31:51;;;;;;;;;;;21.00;99.90;;;;;;5014626;28;19912;-54
2022/06/28 00:34:35;;;;;;;;;;;20.90;99.90;;;;;;5034227;28;19916;-55
2022/06/28 00:37:19;;;;;;;;;;;21.00;99.90;;;;;;5032819;28;19920;-54
2022/06/28 00:40:03;;;;;;;;;;;21.10;99.90;;;;;;5034376;28;19939;-55
2022/06/28 00:42:47;;;;;;;;;;;20.90;99.90;;;;;;5034928;28;20380;-56
2022/06/28 00:45:31;;;;;;;;;;;20.80;99.90;;;;;;5034292;28;19951;-56
2022/06/28 00:48:17;;;;;;;;;;;20.50;99.90;;;;;;5033789;28;19917;-55
2022/06/28 00:51:01;;;;;;;;;;;20.50;99.90;;;;;;5034934;28;20447;-57
2022/06/28 00:53:46;;;;;;;;;;;20.50;99.90;;;;;;5035140;28;19920;-56
2022/06/28 00:56:30;;;;;;;;;;;20.50;99.90;;;;;;5034003;28;20031;-55
2022/06/28 00:59:14;;;;;;;;;;;20.60;99.90;;;;;;5034289;28;19920;-56
2022/06/28 01:01:59;;;;;;;;;;;20.70;99.90;;;;;;5034817;28;19912;-58
2022/06/28 01:04:44;;;;;;;;;;;20.70;99.90;;;;;;5035894;28;19959;-55
2022/06/28 01:07:28;;;;;;;;;;;20.70;99.90;;;;;;5018933;28;19919;-57
2022/06/28 01:10:12;;;;;;;;;;;20.70;99.90;;;;;;5034240;28;20430;-56
2022/06/28 01:12:56;;;;;;;;;;;20.90;99.90;;;;;;5032431;28;19931;-58
2022/06/28 01:15:41;;;;;;;;;;;20.80;99.90;;;;;;5034790;28;19962;-56
2022/06/28 01:18:25;;;;;;;;;;;20.80;99.90;;;;;;5029377;28;19920;-55
2022/06/28 01:21:11;;;;;;;;;;;20.80;99.90;;;;;;5034247;28;19918;-55
2022/06/28 01:23:56;;;;;;;;;;;20.80;99.90;;;;;;5034131;28;19920;-53
2022/06/28 01:26:40;;;;;;;;;;;20.80;99.90;;;;;;5033969;28;19932;-57
2022/06/28 01:29:25;;;;;;;;;;;20.80;99.90;;;;;;5015152;28;19940;-57
2022/06/28 01:32:09;;;;;;;;;;;20.80;99.90;;;;;;5035255;28;19916;-58
2022/06/28 01:34:53;;;;;;;;;;;20.80;99.90;;;;;;5054795;28;20019;-53
2022/06/28 01:37:38;;;;;;;;;;;20.80;99.90;;;;;;5035852;28;19923;-55
2022/06/28 01:40:23;;;;;;;;;;;20.90;99.90;;;;;;5034333;28;19998;-55
2022/06/28 01:43:07;;;;;;;;;;;20.90;99.90;;;;;;5020538;28;19920;-57
2022/06/28 01:45:52;;;;;;;;;;;20.90;99.90;;;;;;5032303;28;19980;-55
2022/06/28 01:48:36;;;;;;;;;;;20.90;99.90;;;;;;5032327;28;20319;-55
2022/06/28 01:51:21;;;;;;;;;;;20.90;99.90;;;;;;5033657;28;20385;-54
2022/06/28 01:54:05;;;;;;;;;;;20.90;99.90;;;;;;5034217;28;19924;-55
2022/06/28 01:56:50;;;;;;;;;;;20.90;99.90;;;;;;5032539;28;20359;-53
2022/06/28 01:59:36;;;;;;;;;;;20.80;99.90;;;;;;5033794;28;20296;-56
2022/06/28 02:02:20;;;;;;;;;;;20.80;99.90;;;;;;5033487;28;20272;-54
2022/06/28 02:05:04;;;;;;;;;;;20.70;99.90;;;;;;5034116;28;19916;-55
2022/06/28 02:07:49;;;;;;;;;;;20.50;99.90;;;;;;5033130;28;19936;-57
2022/06/28 02:10:33;;;;;;;;;;;20.50;99.90;;;;;;5032568;28;20008;-53
2022/06/28 02:13:17;;;;;;;;;;;20.50;99.90;;;;;;5033897;28;19928;-54
2022/06/28 02:16:02;;;;;;;;;;;20.40;99.90;;;;;;5033017;28;20276;-53
2022/06/28 02:18:47;;;;;;;;;;;20.50;99.90;;;;;;5032777;28;19966;-50
2022/06/28 02:21:38;;;;;;;;;;;20.50;99.90;;;;;;5033678;28;20310;-53
2022/06/28 02:24:22;;;;;;;;;;;20.60;99.90;;;;;;5033912;28;19919;-53
2022/06/28 02:27:07;;;;;;;;;;;20.50;99.90;;;;;;5033273;28;19939;-53
2022/06/28 02:29:51;;;;;;;;;;;20.50;99.90;;;;;;5033403;28;19971;-52
2022/06/28 02:32:35;;;;;;;;;;;20.50;99.90;;;;;;5033611;28;19919;-56
2022/06/28 02:41:26;;;;;;;;;;;20.30;99.90;;;;;;5053956;28;19920;-56
2022/06/28 02:44:10;;;;;;;;;;;20.20;99.90;;;;;;5050238;28;19935;-52
2022/06/28 02:46:54;;;;;;;;;;;20.20;99.90;;;;;;5013005;28;19921;-55
2022/06/28 02:49:38;;;;;;;;;;;20.10;99.90;;;;;;5019958;28;19937;-53
2022/06/28 02:52:22;;;;;;;;;;;20.00;99.90;;;;;;5031119;28;20320;-51
2022/06/28 02:55:07;;;;;;;;;;;19.90;99.90;;;;;;5030740;28;20000;-56
2022/06/28 02:57:51;;;;;;;;;;;19.90;99.90;;;;;;5031024;28;19916;-55
2022/06/28 03:00:35;;;;;;;;;;;20.00;99.90;;;;;;5031475;28;20285;-56
2022/06/28 03:03:19;;;;;;;;;;;19.80;99.90;;;;;;5012688;28;20391;-56
2022/06/28 03:06:04;;;;;;;;;;;19.70;99.90;;;;;;5019029;28;19924;-50
2022/06/28 03:08:48;;;;;;;;;;;19.50;99.90;;;;;;5032380;28;20042;-50
2022/06/28 03:11:32;;;;;;;;;;;19.40;99.90;;;;;;5026699;28;19932;-51
2022/06/28 03:14:16;;;;;;;;;;;19.40;99.90;;;;;;5034654;28;19938;-54
2022/06/28 03:17:01;;;;;;;;;;;19.30;99.90;;;;;;5036873;28;19963;-49
2022/06/28 03:19:45;;;;;;;;;;;19.20;99.90;;;;;;5037240;28;20348;-53
2022/06/28 03:22:29;;;;;;;;;;;19.10;99.90;;;;;;5021583;28;19963;-53
2022/06/28 03:25:13;;;;;;;;;;;19.10;99.90;;;;;;5036945;28;19948;-55
2022/06/28 03:27:57;;;;;;;;;;;18.90;99.90;;;;;;5017452;28;19919;-54
2022/06/28 03:30:41;;;;;;;;;;;18.90;99.90;;;;;;5019036;28;20101;-57
2022/06/28 03:33:26;;;;;;;;;;;18.90;99.90;;;;;;5037175;28;19916;-54
2022/06/28 03:36:10;;;;;;;;;;;19.00;99.90;;;;;;5035853;28;19920;-53
2022/06/28 03:38:54;;;;;;;;;;;19.00;99.90;;;;;;5036910;28;19956;-56
2022/06/28 03:41:38;;;;;;;;;;;18.90;99.90;;;;;;5036446;28;20019;-54
2022/06/28 03:44:23;;;;;;;;;;;18.70;99.90;;;;;;5036891;28;19943;-55
2022/06/28 03:47:07;;;;;;;;;;;18.60;99.90;;;;;;5016154;28;20276;-55
2022/06/28 03:49:51;;;;;;;;;;;18.60;99.90;;;;;;5021143;28;20026;-54
2022/06/28 03:52:35;;;;;;;;;;;18.80;99.90;;;;;;5036727;28;19916;-51
2022/06/28 03:55:20;;;;;;;;;;;18.70;99.90;;;;;;5036146;28;19970;-56
2022/06/28 03:58:04;;;;;;;;;;;18.80;99.90;;;;;;5027325;28;19928;-50
2022/06/28 04:00:48;;;;;;;;;;;18.80;99.90;;;;;;5034395;28;19920;-54
2022/06/28 04:03:34;;;;;;;;;;;18.50;99.90;;;;;;5050071;28;19915;-57
2022/06/28 04:06:18;;;;;;;;;;;18.50;99.90;;;;;;5054954;28;20272;-50
2022/06/28 04:09:02;;;;;;;;;;;18.50;99.90;;;;;;5048967;28;20395;-52
2022/06/28 04:11:46;;;;;;;;;;;18.50;99.90;;;;;;5035936;28;19988;-53
2022/06/28 04:14:30;;;;;;;;;;;18.50;99.90;;;;;;5035186;28;19955;-49
2022/06/28 04:17:14;;;;;;;;;;;18.50;99.90;;;;;;5034668;28;19916;-49
2022/06/28 04:19:59;;;;;;;;;;;18.20;99.90;;;;;;5035673;28;19996;-53
2022/06/28 04:22:43;;;;;;;;;;;18.30;99.90;;;;;;5034463;28;20000;-55
2022/06/28 04:25:27;;;;;;;;;;;18.50;99.90;;;;;;5035337;28;20024;-55
2022/06/28 04:28:11;;;;;;;;;;;18.60;99.90;;;;;;5034431;28;19920;-55
2022/06/28 04:30:56;;;;;;;;;;;18.70;99.90;;;;;;5033999;28;20206;-52
2022/06/28 04:33:41;;;;;;;;;;;18.80;99.90;;;;;;5035265;28;19921;-52
2022/06/28 04:36:26;;;;;;;;;;;18.70;99.90;;;;;;5036364;28;19920;-53
2022/06/28 04:39:11;;;;;;;;;;;18.80;99.90;;;;;;5036459;28;19963;-53
2022/06/28 04:41:55;;;;;;;;;;;18.90;99.90;;;;;;5031057;28;20331;-53
2022/06/28 04:44:40;;;;;;;;;;;18.90;99.90;;;;;;5037602;28;19916;-56
2022/06/28 04:47:24;;;;;;;;;;;18.90;99.90;;;;;;5037897;28;19924;-54
2022/06/28 04:50:09;;;;;;;;;;;18.90;99.90;;;;;;5034887;28;19915;-54
2022/06/28 04:52:53;;;;;;;;;;;18.90;99.90;;;;;;5034558;28;19963;-54
2022/06/28 04:55:37;;;;;;;;;;;18.80;99.90;;;;;;5033667;28;19920;-54
2022/06/28 04:58:22;;;;;;;;;;;18.90;99.90;;;;;;5033565;28;20368;-50
2022/06/28 05:01:06;;;;;;;;;;;18.90;99.90;;;;;;5033957;28;20006;-53
2022/06/28 05:03:51;;;;;;;;;;;18.90;99.90;;;;;;5019911;28;19998;-53
2022/06/28 05:06:35;;;;;;;;;;;18.90;99.90;;;;;;5033640;28;19959;-55
2022/06/28 05:09:19;;;;;;;;;;;19.00;99.90;;;;;;5033757;28;20399;-56
2022/06/28 05:12:04;;;;;;;;;;;18.90;99.90;;;;;;5027145;28;19938;-53
2022/06/28 05:14:47;;;;;;;;;;;19.00;99.90;;;;;;5033660;28;19919;-56
2022/06/28 05:17:32;;;;;;;;;;;18.80;99.90;;;;;;5033563;28;19916;-60
2022/06/28 05:20:16;;;;;;;;;;;18.90;99.90;;;;;;5034112;28;20001;-52
2022/06/28 05:23:00;;;;;;;;;;;19.00;99.90;;;;;;5034279;28;19924;-53
2022/06/28 05:25:45;;;;;;;;;;;18.90;99.90;;;;;;5034539;28;19913;-52
2022/06/28 05:28:29;;;;;;;;;;;19.00;99.90;;;;;;5033628;28;19916;-50
2022/06/28 05:31:13;;;;;;;;;;;19.00;99.90;;;;;;5033837;28;19939;-53
2022/06/28 05:33:57;;;;;;;;;;;18.80;99.90;;;;;;5033564;28;19916;-52
2022/06/28 05:36:42;;;;;;;;;;;18.70;99.90;;;;;;5033200;28;19959;-55
2022/06/28 05:39:26;;;;;;;;;;;19.00;99.90;;;;;;5018208;28;19967;-53
2022/06/28 05:42:10;;;;;;;;;;;19.20;99.90;;;;;;5014891;28;19921;-55
2022/06/28 05:44:54;;;;;;;;;;;19.10;99.90;;;;;;5029732;28;19970;-60
2022/06/28 05:47:38;;;;;;;;;;;19.10;99.90;;;;;;5032983;28;19917;-54
2022/06/28 05:50:25;;;;;;;;;;;19.00;99.90;;;;;;5033307;28;20327;-56
2022/06/28 05:53:10;;;;;;;;;;;19.10;99.90;;;;;;5033759;28;19963;-55
2022/06/28 05:55:54;;;;;;;;;;;18.90;99.90;;;;;;5033540;28;19963;-54
2022/06/28 05:58:38;;;;;;;;;;;19.00;99.90;;;;;;5028056;28;19995;-55
2022/06/28 06:01:23;;;;;;;;;;;18.90;99.90;;;;;;5018484;28;20309;-51
2022/06/28 06:04:08;;;;;;;;;;;18.90;99.90;;;;;;5033666;28;19920;-54
2022/06/28 06:06:53;;;;;;;;;;;18.90;99.90;;;;;;5033240;28;19916;-53
2022/06/28 06:09:41;;;;;;;;;;;18.80;99.90;;;;;;5019334;28;19924;-53
2022/06/28 06:12:25;;;;;;;;;;;18.90;99.90;;;;;;5029152;28;19966;-52
2022/06/28 06:15:09;;;;;;;;;;;19.00;99.90;;;;;;5016262;28;19920;-51
2022/06/28 06:17:53;;;;;;;;;;;18.90;99.90;;;;;;5033056;28;20010;-57
2022/06/28 06:20:38;;;;;;;;;;;18.80;99.90;;;;;;5033073;28;20426;-55
2022/06/28 06:23:22;;;;;;;;;;;18.80;99.90;;;;;;5033630;28;19928;-54
2022/06/28 06:26:06;;;;;;;;;;;18.80;99.90;;;;;;5033084;28;19960;-58
2022/06/28 06:28:50;;;;;;;;;;;18.80;99.90;;;;;;5033336;28;20431;-53
2022/06/28 06:31:35;;;;;;;;;;;18.90;99.90;;;;;;5033150;28;19955;-53
2022/06/28 06:34:19;;;;;;;;;;;18.70;99.90;;;;;;5032861;28;20296;-54
2022/06/28 06:37:03;;;;;;;;;;;18.70;99.90;;;;;;5032365;28;19912;-56
2022/06/28 06:39:48;;;;;;;;;;;18.70;99.90;;;;;;5017993;28;20288;-52
2022/06/28 06:42:32;;;;;;;;;;;18.70;99.90;;;;;;5032376;28;19963;-51
2022/06/28 06:45:16;;;;;;;;;;;18.60;99.90;;;;;;5031869;28;19920;-55
2022/06/28 06:48:00;;;;;;;;;;;18.80;99.90;;;;;;5017728;28;20483;-54
2022/06/28 06:50:45;;;;;;;;;;;19.10;99.90;;;;;;5032225;28;19971;-55
2022/06/28 06:53:29;;;;;;;;;;;19.00;99.90;;;;;;5032525;28;19919;-54
2022/06/28 06:56:13;;;;;;;;;;;19.20;99.90;;;;;;5032068;28;19929;-55
2022/06/28 06:58:57;;;;;;;;;;;19.30;99.90;;;;;;5047384;28;19915;-55
2022/06/28 07:01:42;;;;;;;;;;;19.20;99.90;;;;;;5038444;28;19920;-51
2022/06/28 07:04:26;;;;;;;;;;;19.30;99.90;;;;;;5032997;28;19916;-54
2022/06/28 07:07:10;;;;;;;;;;;19.30;99.90;;;;;;5031805;28;20320;-55
2022/06/28 07:09:56;;;;;;;;;;;19.30;99.90;;;;;;5032675;28;19966;-52
2022/06/28 07:12:41;;;;;;;;;;;19.40;99.90;;;;;;5032097;28;19920;-53
2022/06/28 07:15:25;;;;;;;;;;;19.60;99.90;;;;;;5016129;28;19928;-52
2022/06/28 07:18:10;;;;;;;;;;;19.40;99.80;;;;;;5029207;28;20007;-54
2022/06/28 07:20:55;;;;;;;;;;;19.50;99.90;;;;;;5032669;28;20056;-54
2022/06/28 07:23:40;;;;;;;;;;;19.60;99.20;;;;;;5033236;28;19915;-50
2022/06/28 07:26:24;;;;;;;;;;;19.70;99.20;;;;;;5032625;28;19920;-51
2022/06/28 07:29:08;;;;;;;;;;;19.80;98.80;;;;;;5032931;28;19962;-51
2022/06/28 07:31:52;;;;;;;;;;;19.70;98.80;;;;;;5032157;28;19982;-56
2022/06/28 07:34:36;;;;;;;;;;;19.60;98.40;;;;;;5032978;28;19919;-56
2022/06/28 07:37:21;;;;;;;;;;;19.50;98.60;;;;;;5032210;28;20399;-56
2022/06/28 07:40:06;;;;;;;;;;;19.60;98.90;;;;;;5032931;28;19920;-56
2022/06/28 07:42:50;;;;;;;;;;;19.60;98.20;;;;;;5035708;28;20015;-57
2022/06/28 07:45:39;;;;;;;;;;;19.80;98.20;;;;;;5031464;28;19975;-52
2022/06/28 07:48:24;;;;;;;;;;;19.80;98.10;;;;;;5031605;28;19920;-54
2022/06/28 07:54:11;;;;;;;;;;;19.70;98.10;;;;;;5031799;28;19963;-56
2022/06/28 07:56:55;;;;;;;;;;;19.70;98.20;;;;;;5033548;28;19916;-52
2022/06/28 07:59:40;;;;;;;;;;;19.80;98.50;;;;;;5031787;28;19959;-52
2022/06/28 08:02:24;;;;;;;;;;;20.10;98.20;;;;;;5021528;28;19996;-53
2022/06/28 08:05:08;;;;;;;;;;;20.20;97.90;;;;;;5035985;28;19916;-53
2022/06/28 08:07:52;;;;;;;;;;;20.00;97.90;;;;;;5039543;28;20010;-55
2022/06/28 08:10:36;;;;;;;;;;;19.90;98.20;;;;;;5023204;28;19928;-55
2022/06/28 08:13:21;;;;;;;;;;;20.10;98.00;;;;;;5026743;28;19916;-50
2022/06/28 08:16:05;;;;;;;;;;;20.20;97.40;;;;;;5036137;28;19955;-55
2022/06/28 08:18:49;;;;;;;;;;;20.00;96.60;;;;;;5020938;28;19920;-52
2022/06/28 08:21:33;;;;;;;;;;;20.00;96.40;;;;;;5020935;28;19935;-54
2022/06/28 08:24:17;;;;;;;;;;;20.00;96.70;;;;;;5035038;28;19975;-53
2022/06/28 08:27:02;;;;;;;;;;;20.10;96.30;;;;;;5035577;28;20161;-55
2022/06/28 08:29:47;;;;;;;;;;;20.30;95.70;;;;;;5035551;28;20399;-55
2022/06/28 08:32:31;;;;;;;;;;;20.20;95.50;;;;;;5035495;28;19913;-55
2022/06/28 08:35:16;;;;;;;;;;;20.20;95.30;;;;;;5035491;28;19912;-53
2022/06/28 08:38:01;;;;;;;;;;;20.20;94.70;;;;;;5034978;28;20062;-52
2022/06/28 08:40:45;;;;;;;;;;;20.30;94.70;;;;;;5035507;28;19915;-57
2022/06/28 08:43:31;;;;;;;;;;;20.40;94.80;;;;;;5034590;28;20040;-56
2022/06/28 08:46:15;;;;;;;;;;;20.40;94.70;;;;;;5035158;28;20020;-55
2022/06/28 08:49:03;;;;;;;;;;;20.40;94.80;;;;;;5015889;28;20013;-54
2022/06/28 08:51:47;;;;;;;;;;;20.60;94.40;;;;;;5024789;28;20387;-55
2022/06/28 08:54:32;;;;;;;;;;;20.70;93.90;;;;;;5035459;28;19916;-53
2022/06/28 08:57:19;;;;;;;;;;;20.90;93.30;;;;;;5033871;28;19998;-55
2022/06/28 09:00:05;;;;;;;;;;;21.00;92.80;;;;;;5034226;28;19912;-52
2022/06/28 09:02:51;;;;;;;;;;;21.00;92.80;;;;;;5030973;28;20304;-50
2022/06/28 09:05:35;;;;;;;;;;;21.20;92.80;;;;;;5031825;28;19919;-54
2022/06/28 09:08:19;;;;;;;;;;;21.30;93.00;;;;;;5031198;28;19991;-54
2022/06/28 09:11:03;;;;;;;;;;;21.20;91.30;;;;;;5026022;28;20297;-54
2022/06/28 09:13:47;;;;;;;;;;;20.70;91.00;;;;;;5025407;28;20391;-54
2022/06/28 09:16:31;;;;;;;;;;;20.70;92.00;;;;;;5032244;28;20383;-53
2022/06/28 09:19:16;;;;;;;;;;;21.00;92.40;;;;;;5013175;28;19925;-52
2022/06/28 09:22:01;;;;;;;;;;;20.60;92.00;;;;;;5017210;28;19967;-50
2022/06/28 09:24:45;;;;;;;;;;;20.80;92.40;;;;;;5032955;28;20018;-55
2022/06/28 09:27:31;;;;;;;;;;;21.10;91.70;;;;;;5032870;28;20440;-57
2022/06/28 09:30:15;;;;;;;;;;;21.50;91.70;;;;;;5032146;28;19932;-53
2022/06/28 09:33:02;;;;;;;;;;;21.20;90.30;;;;;;5030259;28;19916;-55
2022/06/28 09:35:51;;;;;;;;;;;21.40;90.80;;;;;;5030651;28;19925;-52
2022/06/28 09:38:35;;;;;;;;;;;21.70;90.70;;;;;;5031925;28;19936;-54
2022/06/28 09:41:25;;;;;;;;;;;21.50;90.50;;;;;;5032742;28;19916;-52
2022/06/28 09:44:10;;;;;;;;;;;21.60;90.50;;;;;;5031827;28;19920;-51
2022/06/28 09:46:57;;;;;;;;;;;21.50;89.20;;;;;;5031370;28;19970;-51
2022/06/28 09:49:45;;;;;;;;;;;21.40;89.80;;;;;;5035285;28;19931;-50
2022/06/28 09:52:30;;;;;;;;;;;21.50;89.80;;;;;;5052350;28;19947;-52
2022/06/28 09:55:15;;;;;;;;;;;21.60;87.20;;;;;;5035347;28;19916;-54
2022/06/28 09:58:00;;;;;;;;;;;21.60;87.70;;;;;;5032980;28;19939;-51
2022/06/28 10:00:44;;;;;;;;;;;22.20;86.60;;;;;;5039743;28;19911;-53
2022/06/28 10:03:28;;;;;;;;;;;22.30;85.40;;;;;;5054079;28;19939;-50
2022/06/28 10:06:13;;;;;;;;;;;22.00;84.90;;;;;;5014556;28;19916;-52
2022/06/28 10:08:58;;;;;;;;;;;21.70;85.40;;;;;;4998792;28;20312;-52
2022/06/28 10:15:03;;;;;;;;;;;22.50;81.50;;;;;;5015102;28;19964;-54
2022/06/28 10:18:06;;;;;;;;;;;22.70;82.40;;;;;;5046383;28;20342;-54
2022/06/28 10:20:51;;;;;;;;;;;22.70;80.40;;;;;;5053872;28;19919;-54
2022/06/28 10:23:42;;;;;;;;;;;22.70;80.90;;;;;;5053530;28;19919;-55
2022/06/28 10:26:26;;;;;;;;;;;22.80;81.80;;;;;;5046483;28;19919;-53
2022/06/28 10:29:11;;;;;;;;;;;22.80;81.30;;;;;;5033484;28;20331;-54
2022/06/28 10:31:55;;;;;;;;;;;22.50;79.90;;;;;;5033518;28;19959;-55
2022/06/28 10:34:47;;;;;;;;;;;22.40;80.00;;;;;;5034590;28;19920;-56
2022/06/28 10:37:31;;;;;;;;;;;22.50;79.70;;;;;;5014691;28;19971;-52
2022/06/28 10:40:24;;;;;;;;;;;22.50;78.40;;;;;;5014901;28;19920;-51
2022/06/28 10:43:08;;;;;;;;;;;22.30;79.90;;;;;;5019460;28;20387;-54
2022/06/28 10:46:05;;;;;;;;;;;22.50;82.00;;;;;;5033529;28;19912;-51
2022/06/28 10:48:49;;;;;;;;;;;22.80;80.20;;;;;;5033138;28;19916;-53
2022/06/28 10:51:35;;;;;;;;;;;22.80;75.40;;;;;;5033051;28;20016;-50
2022/06/28 10:54:19;;;;;;;;;;;22.80;76.20;;;;;;5032943;28;19959;-53
2022/06/28 10:57:22;;;;;;;;;;;22.80;78.20;;;;;;5032815;28;19944;-52
2022/06/28 11:00:10;;;;;;;;;;;22.60;79.80;;;;;;5030713;28;19916;-53
2022/06/28 11:02:56;;;;;;;;;;;22.40;79.80;;;;;;5032592;28;19931;-53
2022/06/28 11:05:45;;;;;;;;;;;22.70;79.40;;;;;;5032288;28;19912;-54
2022/06/28 11:08:34;;;;;;;;;;;22.90;79.30;;;;;;5032713;28;19963;-54
2022/06/28 11:11:18;;;;;;;;;;;23.10;79.10;;;;;;5032925;28;19919;-54
2022/06/28 11:14:25;;;;;;;;;;;23.30;77.50;;;;;;5033109;28;19923;-56
2022/06/28 11:17:19;;;;;;;;;;;23.50;77.10;;;;;;5032891;28;19971;-51
2022/06/28 11:20:06;;;;;;;;;;;23.50;77.00;;;;;;5032368;28;19916;-51
2022/06/28 11:22:50;;;;;;;;;;;23.50;75.90;;;;;;5033123;28;19945;-56
2022/06/28 11:28:55;;;;;;;;;;;23.20;75.20;;;;;;5033993;28;19916;-57
2022/06/28 11:31:41;;;;;;;;;;;23.20;75.60;;;;;;5034422;28;19920;-56
2022/06/28 11:34:26;;;;;;;;;;;23.50;76.20;;;;;;5036949;28;19920;-51
2022/06/28 11:37:10;;;;;;;;;;;23.50;76.20;;;;;;5036331;28;19916;-53
2022/06/28 11:39:55;;;;;;;;;;;23.60;75.20;;;;;;5036292;28;20046;-52
2022/06/28 11:42:39;;;;;;;;;;;23.30;77.20;;;;;;5021842;28;20288;-57
2022/06/28 11:45:24;;;;;;;;;;;23.20;77.80;;;;;;5016548;28;20017;-55
2022/06/28 11:48:14;;;;;;;;;;;23.50;77.40;;;;;;5018255;28;19951;-56
2022/06/28 11:50:59;;;;;;;;;;;23.10;76.40;;;;;;5037362;28;19963;-53
2022/06/28 11:53:44;;;;;;;;;;;23.00;75.70;;;;;;5036199;28;19919;-52
2022/06/28 11:56:41;;;;;;;;;;;23.30;75.50;;;;;;5035693;28;19919;-49
2022/06/28 11:59:43;;;;;;;;;;;23.40;74.40;;;;;;5027697;28;19919;-49
2022/06/28 12:02:37;;;;;;;;;;;23.50;73.40;;;;;;5027546;28;19916;-54
2022/06/28 12:05:29;;;;;;;;;;;23.70;73.40;;;;;;5034797;28;19920;-53
2022/06/28 12:08:13;;;;;;;;;;;23.80;73.00;;;;;;5004783;28;19917;-54
2022/06/28 12:10:57;;;;;;;;;;;23.60;74.40;;;;;;5036309;28;20012;-54
2022/06/28 12:13:41;;;;;;;;;;;23.70;73.50;;;;;;5035924;28;20011;-52
2022/06/28 12:16:44;;;;;;;;;;;23.70;71.70;;;;;;5036006;28;20340;-52
2022/06/28 12:19:29;;;;;;;;;;;23.60;72.20;;;;;;5034925;28;19927;-54
2022/06/28 12:22:17;;;;;;;;;;;23.90;72.40;;;;;;5032262;28;20356;-53
2022/06/28 12:25:07;;;;;;;;;;;24.20;72.10;;;;;;5033987;28;19924;-56
2022/06/28 12:27:52;;;;;;;;;;;24.50;70.40;;;;;;5037238;28;20590;-52
2022/06/28 12:30:36;;;;;;;;;;;24.50;69.50;;;;;;5038166;28;20265;-55
2022/06/28 12:33:20;;;;;;;;;;;24.50;69.90;;;;;;5034327;28;19924;-52
2022/06/28 12:36:04;;;;;;;;;;;24.60;69.40;;;;;;5034024;28;19928;-55
2022/06/28 12:38:48;;;;;;;;;;;24.60;67.70;;;;;;5038097;28;19959;-51
2022/06/28 12:41:33;;;;;;;;;;;24.20;67.40;;;;;;5033344;28;20541;-53
2022/06/28 12:44:17;;;;;;;;;;;24.30;68.10;;;;;;5041307;28;19920;-55
2022/06/28 12:47:02;;;;;;;;;;;24.60;64.50;;;;;;5026223;28;19966;-56
2022/06/28 12:49:46;;;;;;;;;;;24.30;65.20;;;;;;5034588;28;20322;-54
2022/06/28 12:52:31;;;;;;;;;;;24.60;65.10;;;;;;5035490;28;19993;-54
2022/06/28 12:55:15;;;;;;;;;;;24.80;64.30;;;;;;5034808;28;20289;-50
2022/06/28 12:57:59;;;;;;;;;;;24.30;66.00;;;;;;5022784;28;20410;-50
2022/06/28 13:00:44;;;;;;;;;;;24.40;66.90;;;;;;5055937;28;19992;-55
2022/06/28 13:03:28;;;;;;;;;;;24.70;66.60;;;;;;5040751;28;19920;-50
2022/06/28 13:06:12;;;;;;;;;;;25.10;66.50;;;;;;5019357;28;19920;-49
2022/06/28 13:08:56;;;;;;;;;;;25.40;66.20;;;;;;5019312;28;19920;-54
2022/06/28 13:11:41;;;;;;;;;;;25.70;65.60;;;;;;5034318;28;19938;-51
2022/06/28 13:14:25;;;;;;;;;;;25.80;63.70;;;;;;5034955;28;19915;-54
2022/06/28 13:17:09;;;;;;;;;;;26.00;63.90;;;;;;5033946;28;19912;-52
2022/06/28 13:19:53;;;;;;;;;;;26.10;61.60;;;;;;5033942;28;19920;-57
2022/06/28 13:22:38;;;;;;;;;;;26.30;61.30;;;;;;5034635;28;19916;-53
2022/06/28 13:25:22;;;;;;;;;;;26.60;60.10;;;;;;5031619;28;19923;-54
2022/06/28 13:28:07;;;;;;;;;;;26.70;59.70;;;;;;5034737;28;19920;-50
2022/06/28 13:30:51;;;;;;;;;;;26.20;58.90;;;;;;5034460;28;19970;-55
2022/06/28 13:33:35;;;;;;;;;;;26.20;58.70;;;;;;5035037;28;20316;-56
2022/06/28 13:36:21;;;;;;;;;;;26.30;58.00;;;;;;5036583;28;20016;-55
2022/06/28 13:39:05;;;;;;;;;;;26.30;57.40;;;;;;5046088;28;19952;-55
2022/06/28 13:41:49;;;;;;;;;;;25.80;58.80;;;;;;5035512;28;20372;-51
2022/06/28 13:44:34;;;;;;;;;;;26.00;59.80;;;;;;5029921;28;19959;-56
2022/06/28 13:47:18;;;;;;;;;;;26.50;60.60;;;;;;5033367;28;20419;-55
2022/06/28 13:50:02;;;;;;;;;;;27.00;59.00;;;;;;5018454;28;19939;-54
2022/06/28 13:52:47;;;;;;;;;;;27.30;57.60;;;;;;5033292;28;19916;-56
2022/06/28 13:55:31;;;;;;;;;;;27.40;56.80;;;;;;5032004;28;19919;-53
2022/06/28 13:58:15;;;;;;;;;;;27.20;57.50;;;;;;5033595;28;20252;-53
2022/06/28 14:01:02;;;;;;;;;;;27.20;57.20;;;;;;5014469;28;19911;-52
2022/06/28 14:03:46;;;;;;;;;;;27.00;56.70;;;;;;5018442;28;20480;-55
2022/06/28 14:06:30;;;;;;;;;;;27.00;57.00;;;;;;5033385;28;19911;-55
2022/06/28 14:09:14;;;;;;;;;;;26.90;56.50;;;;;;5033434;28;19948;-53
2022/06/28 14:11:59;;;;;;;;;;;27.20;56.00;;;;;;5033966;28;19932;-54
2022/06/28 14:14:44;;;;;;;;;;;26.90;55.90;;;;;;5033018;28;19919;-54
2022/06/28 14:17:28;;;;;;;;;;;27.00;57.10;;;;;;5032558;28;19967;-53
2022/06/28 14:20:12;;;;;;;;;;;27.50;57.00;;;;;;5033228;28;19935;-57
2022/06/28 14:22:57;;;;;;;;;;;27.80;56.60;;;;;;5032924;28;19929;-52
2022/06/28 14:25:41;;;;;;;;;;;27.80;54.70;;;;;;5032896;28;20391;-54
2022/06/28 14:28:25;;;;;;;;;;;27.00;55.60;;;;;;5032694;28;19951;-59
2022/06/28 14:31:09;;;;;;;;;;;26.90;55.20;;;;;;5033266;28;19920;-54
2022/06/28 14:33:53;;;;;;;;;;;27.10;56.10;;;;;;5032919;28;19916;-53
2022/06/28 14:36:38;;;;;;;;;;;27.50;55.60;;;;;;5032151;28;19943;-51
2022/06/28 14:39:22;;;;;;;;;;;28.00;54.70;;;;;;5033111;28;19943;-56
2022/06/28 14:42:07;;;;;;;;;;;28.30;54.90;;;;;;5032757;28;19975;-54
2022/06/28 14:44:51;;;;;;;;;;;28.70;55.30;;;;;;5013884;28;19958;-55
2022/06/28 14:47:37;;;;;;;;;;;29.10;54.20;;;;;;5032623;28;19919;-56
2022/06/28 14:50:21;;;;;;;;;;;28.30;54.10;;;;;;5032867;28;20430;-54
2022/06/28 14:53:11;;;;;;;;;;;27.60;55.80;;;;;;5032644;28;19911;-54
2022/06/28 14:55:55;;;;;;;;;;;27.70;54.80;;;;;;5032374;28;19920;-52
2022/06/28 14:58:40;;;;;;;;;;;27.80;54.60;;;;;;5033140;28;19915;-54
2022/06/28 15:01:24;;;;;;;;;;;27.70;54.60;;;;;;5032053;28;19994;-55
2022/06/28 15:04:08;;;;;;;;;;;27.60;55.20;;;;;;5032346;28;19916;-56
2022/06/28 15:06:52;;;;;;;;;;;27.70;55.10;;;;;;5030493;28;19912;-54
2022/06/28 15:09:37;;;;;;;;;;;27.80;55.50;;;;;;5031759;28;20562;-53
2022/06/28 15:12:22;;;;;;;;;;;27.80;55.40;;;;;;5032537;28;20012;-53
2022/06/28 15:15:06;;;;;;;;;;;28.30;55.20;;;;;;4998034;28;19941;-54
2022/06/28 15:17:50;;;;;;;;;;;28.60;55.90;;;;;;5014023;28;20332;-54
2022/06/28 15:20:34;;;;;;;;;;;29.10;54.20;;;;;;5032949;28;19938;-54
2022/06/28 15:32:27;;;;;;;;;;;30.00;51.90;;;;;;5034379;28;19935;-57
2022/06/28 15:35:12;;;;;;;;;;;29.90;51.30;;;;;;5032264;28;20226;-56
2022/06/28 15:37:56;;;;;;;;;;;29.50;51.00;;;;;;5031372;28;20375;-52
2022/06/28 15:40:40;;;;;;;;;;;29.30;51.40;;;;;;5032166;28;20387;-53
2022/06/28 15:43:25;;;;;;;;;;;29.20;51.90;;;;;;5032273;28;19916;-53
2022/06/28 15:46:30;;;;;;;;;;;29.20;52.90;;;;;;5030149;28;19955;-55
2022/06/28 15:49:15;;;;;;;;;;;29.60;52.20;;;;;;5027471;28;19916;-57
2022/06/28 15:51:59;;;;;;;;;;;29.20;52.00;;;;;;5031116;28;20371;-57
2022/06/28 15:54:43;;;;;;;;;;;29.50;51.50;;;;;;5013702;28;20012;-56
2022/06/28 15:57:27;;;;;;;;;;;29.80;50.00;;;;;;5031632;28;19967;-52
2022/06/28 16:00:12;;;;;;;;;;;29.80;49.70;;;;;;5032833;28;19919;-56
2022/06/28 16:02:56;;;;;;;;;;;29.80;50.90;;;;;;5032412;28;19916;-54
2022/06/28 16:05:40;;;;;;;;;;;30.10;50.20;;;;;;5032221;28;19921;-55
2022/06/28 16:08:24;;;;;;;;;;;30.60;50.60;;;;;;5031550;28;19999;-57
2022/06/28 16:11:09;;;;;;;;;;;31.20;49.80;;;;;;5031739;28;19988;-57
2022/06/28 16:13:54;;;;;;;;;;;31.40;48.10;;;;;;5012301;28;19936;-52
2022/06/28 16:16:39;;;;;;;;;;;31.40;49.00;;;;;;5029463;28;19916;-52
2022/06/28 16:19:23;;;;;;;;;;;31.60;48.90;;;;;;5029541;28;20452;-54
2022/06/28 16:22:07;;;;;;;;;;;31.60;48.60;;;;;;5035887;28;19935;-53
2022/06/28 16:24:51;;;;;;;;;;;31.50;48.20;;;;;;5035738;28;19920;-57
2022/06/28 16:27:36;;;;;;;;;;;31.70;48.70;;;;;;5036290;28;19916;-55